Altus, Oklahoma
Current Conditions -  °F | °C
As of 2:02 PM on Thursday 30 Oct 2014 (Local Time) from KLTS Reporting Station
Clear Clear  
Wind Chill: 25°   Ceiling: Unl
Heat Index: 26°   Visibility: 10mi
Dew Point:   Wind: 13mph
Humidity: 36%   Direction: 20°NNE
Pressure: 30.13"   Gusts: 18mph
Location:  34.64°N, 99.33°W
Report Text: KLTS 301902Z 02011G16KT 10SM CLR 25/09 A3013 RMK AO2A WSHFT 1854
Loading
Personal Weather Stations






























Interactive Weather Map
Tropical Storm Tracking
New forecast layout! Learn more

10-Day Weather Forecast

Advertisements
Track Severe Weather on mobile